sensor_id;sensor_type;location;lat;lon;timestamp;pressure;altitude;pressure_sealevel;temperature;humidity
69037;BME280;58547;51.690;5.186;2022-10-30T00:00:24;101760.59;;;14.30;91.88
69037;BME280;58547;51.690;5.186;2022-10-30T00:02:49;101760.84;;;14.25;94.53
69037;BME280;58547;51.690;5.186;2022-10-30T00:05:15;101763.38;;;14.27;91.98
69037;BME280;58547;51.690;5.186;2022-10-30T00:07:40;101767.84;;;14.25;92.20
69037;BME280;58547;51.690;5.186;2022-10-30T00:10:06;101773.22;;;14.23;94.49
69037;BME280;58547;51.690;5.186;2022-10-30T00:12:31;101768.19;;;14.18;93.80
69037;BME280;58547;51.690;5.186;2022-10-30T00:14:57;101767.69;;;14.28;92.61
69037;BME280;58547;51.690;5.186;2022-10-30T00:17:22;101762.88;;;14.20;93.71
69037;BME280;58547;51.690;5.186;2022-10-30T00:19:47;101761.25;;;14.02;92.65
69037;BME280;58547;51.690;5.186;2022-10-30T00:22:13;101758.72;;;14.00;92.50
69037;BME280;58547;51.690;5.186;2022-10-30T00:24:38;101751.34;;;13.91;95.98
69037;BME280;58547;51.690;5.186;2022-10-30T00:27:03;101751.50;;;13.88;93.52
69037;BME280;58547;51.690;5.186;2022-10-30T00:29:29;101747.50;;;13.81;96.47
69037;BME280;58547;51.690;5.186;2022-10-30T00:31:54;101747.25;;;13.85;94.19
69037;BME280;58547;51.690;5.186;2022-10-30T00:34:19;101743.97;;;13.82;95.43
69037;BME280;58547;51.690;5.186;2022-10-30T00:36:44;101750.56;;;13.89;94.37
69037;BME280;58547;51.690;5.186;2022-10-30T00:39:10;101749.13;;;13.83;95.03
69037;BME280;58547;51.690;5.186;2022-10-30T00:41:35;101749.72;;;13.88;94.15
69037;BME280;58547;51.690;5.186;2022-10-30T00:47:16;101737.28;;;13.76;94.85
69037;BME280;58547;51.690;5.186;2022-10-30T00:49:50;101739.63;;;13.81;96.90
69037;BME280;58547;51.690;5.186;2022-10-30T00:52:19;101746.41;;;13.85;98.09
69037;BME280;58547;51.690;5.186;2022-10-30T00:54:45;101747.25;;;13.85;96.70
69037;BME280;58547;51.690;5.186;2022-10-30T00:57:10;101751.41;;;13.89;94.60
69037;BME280;58547;51.690;5.186;2022-10-30T00:59:35;101746.59;;;13.82;94.34
69037;BME280;58547;51.690;5.186;2022-10-30T01:02:03;101753.00;;;13.76;97.28
69037;BME280;58547;51.690;5.186;2022-10-30T01:04:30;101755.13;;;13.69;97.15
69037;BME280;58547;51.690;5.186;2022-10-30T01:06:58;101755.88;;;13.71;98.05
69037;BME280;58547;51.690;5.186;2022-10-30T01:09:26;101752.31;;;13.72;97.21
69037;BME280;58547;51.690;5.186;2022-10-30T01:11:51;101762.47;;;13.79;95.47
69037;BME280;58547;51.690;5.186;2022-10-30T01:14:19;101750.38;;;13.76;97.16
69037;BME280;58547;51.690;5.186;2022-10-30T01:19:42;101753.94;;;13.75;97.71
69037;BME280;58547;51.690;5.186;2022-10-30T01:22:20;101747.00;;;13.74;97.06
69037;BME280;58547;51.690;5.186;2022-10-30T01:35:46;101758.31;;;13.74;96.01
69037;BME280;58547;51.690;5.186;2022-10-30T01:38:35;101750.47;;;13.74;96.21
69037;BME280;58547;51.690;5.186;2022-10-30T01:41:04;101752.50;;;13.69;96.96
69037;BME280;58547;51.690;5.186;2022-10-30T01:43:29;101760.88;;;13.76;95.23
69037;BME280;58547;51.690;5.186;2022-10-30T01:48:37;101760.19;;;13.72;96.76
69037;BME280;58547;51.690;5.186;2022-10-30T01:51:27;101767.47;;;13.67;95.50
69037;BME280;58547;51.690;5.186;2022-10-30T01:54:16;101764.84;;;13.67;95.23
69037;BME280;58547;51.690;5.186;2022-10-30T01:56:54;101756.66;;;13.56;95.30
69037;BME280;58547;51.690;5.186;2022-10-30T01:59:38;101766.25;;;13.57;95.88
69037;BME280;58547;51.690;5.186;2022-10-30T02:02:05;101771.03;;;13.49;95.58
69037;BME280;58547;51.690;5.186;2022-10-30T02:04:31;101761.91;;;13.56;95.24
69037;BME280;58547;51.690;5.186;2022-10-30T02:06:57;101764.84;;;13.50;95.95
69037;BME280;58547;51.690;5.186;2022-10-30T02:09:22;101747.59;;;13.46;95.15
69037;BME280;58547;51.690;5.186;2022-10-30T02:11:47;101758.75;;;13.49;95.01
69037;BME280;58547;51.690;5.186;2022-10-30T02:14:26;101763.09;;;13.50;97.27
69037;BME280;58547;51.690;5.186;2022-10-30T02:16:53;101765.63;;;13.52;97.13
69037;BME280;58547;51.690;5.186;2022-10-30T02:19:20;101760.94;;;13.41;94.95
69037;BME280;58547;51.690;5.186;2022-10-30T02:21:46;101769.25;;;13.49;95.06
69037;BME280;58547;51.690;5.186;2022-10-30T02:24:11;101773.78;;;13.46;97.40
69037;BME280;58547;51.690;5.186;2022-10-30T02:26:36;101776.59;;;13.43;97.01
69037;BME280;58547;51.690;5.186;2022-10-30T02:29:02;101772.97;;;13.45;95.38
69037;BME280;58547;51.690;5.186;2022-10-30T02:31:28;101769.81;;;13.39;97.31
69037;BME280;58547;51.690;5.186;2022-10-30T02:33:54;101773.28;;;13.39;97.43
69037;BME280;58547;51.690;5.186;2022-10-30T02:36:19;101770.06;;;13.34;96.75
69037;BME280;58547;51.690;5.186;2022-10-30T02:38:44;101782.16;;;13.36;96.01
69037;BME280;58547;51.690;5.186;2022-10-30T02:41:10;101772.91;;;13.29;98.32
69037;BME280;58547;51.690;5.186;2022-10-30T02:43:35;101784.94;;;13.33;95.77
69037;BME280;58547;51.690;5.186;2022-10-30T02:46:01;101776.66;;;13.24;97.05
69037;BME280;58547;51.690;5.186;2022-10-30T02:48:26;101779.19;;;13.25;96.28
69037;BME280;58547;51.690;5.186;2022-10-30T02:50:51;101771.25;;;13.09;97.85
69037;BME280;58547;51.690;5.186;2022-10-30T02:53:16;101776.44;;;13.11;96.77
69037;BME280;58547;51.690;5.186;2022-10-30T02:55:42;101773.56;;;13.15;100.00
69037;BME280;58547;51.690;5.186;2022-10-30T02:58:07;101774.16;;;13.21;97.37
69037;BME280;58547;51.690;5.186;2022-10-30T03:00:32;101775.19;;;13.18;99.67
69037;BME280;58547;51.690;5.186;2022-10-30T03:02:57;101772.41;;;13.21;97.11
69037;BME280;58547;51.690;5.186;2022-10-30T03:05:23;101776.91;;;13.19;99.22
69037;BME280;58547;51.690;5.186;2022-10-30T03:07:48;101786.28;;;13.23;97.16
69037;BME280;58547;51.690;5.186;2022-10-30T03:10:15;101777.56;;;13.23;98.88
69037;BME280;58547;51.690;5.186;2022-10-30T03:12:41;101777.34;;;13.27;97.22
69037;BME280;58547;51.690;5.186;2022-10-30T03:15:06;101780.94;;;13.25;98.82
69037;BME280;58547;51.690;5.186;2022-10-30T03:17:32;101775.88;;;13.22;96.97
69037;BME280;58547;51.690;5.186;2022-10-30T03:19:57;101772.19;;;13.26;96.61
69037;BME280;58547;51.690;5.186;2022-10-30T03:22:22;101779.94;;;13.10;96.69
69037;BME280;58547;51.690;5.186;2022-10-30T03:24:47;101773.94;;;13.08;96.55
69037;BME280;58547;51.690;5.186;2022-10-30T03:27:13;101776.72;;;13.05;99.85
69037;BME280;58547;51.690;5.186;2022-10-30T03:29:38;101785.59;;;13.02;99.12
69037;BME280;58547;51.690;5.186;2022-10-30T03:32:07;101782.88;;;13.04;99.92
69037;BME280;58547;51.690;5.186;2022-10-30T03:34:33;101778.41;;;13.06;100.00
69037;BME280;58547;51.690;5.186;2022-10-30T03:36:58;101785.06;;;13.13;97.90
69037;BME280;58547;51.690;5.186;2022-10-30T03:39:24;101776.25;;;12.96;98.24
69037;BME280;58547;51.690;5.186;2022-10-30T03:41:49;101786.81;;;12.95;98.67
69037;BME280;58547;51.690;5.186;2022-10-30T03:44:14;101784.88;;;12.99;97.81
69037;BME280;58547;51.690;5.186;2022-10-30T03:46:39;101778.13;;;12.94;99.73
69037;BME280;58547;51.690;5.186;2022-10-30T03:49:05;101786.56;;;12.82;98.73
69037;BME280;58547;51.690;5.186;2022-10-30T03:51:30;101792.56;;;12.84;98.12
69037;BME280;58547;51.690;5.186;2022-10-30T03:53:55;101792.09;;;12.76;100.00
69037;BME280;58547;51.690;5.186;2022-10-30T03:56:20;101789.47;;;12.76;100.00
69037;BME280;58547;51.690;5.186;2022-10-30T03:58:46;101795.50;;;12.78;99.99
69037;BME280;58547;51.690;5.186;2022-10-30T04:01:11;101790.88;;;12.83;98.50
69037;BME280;58547;51.690;5.186;2022-10-30T04:03:36;101782.16;;;12.83;100.00
69037;BME280;58547;51.690;5.186;2022-10-30T04:06:02;101786.16;;;12.72;98.52
69037;BME280;58547;51.690;5.186;2022-10-30T04:08:27;101784.47;;;12.71;100.00
69037;BME280;58547;51.690;5.186;2022-10-30T04:10:53;101786.09;;;12.74;100.00
69037;BME280;58547;51.690;5.186;2022-10-30T04:13:18;101783.94;;;12.82;98.95
69037;BME280;58547;51.690;5.186;2022-10-30T04:15:46;101766.53;;;12.81;100.00
69037;BME280;58547;51.690;5.186;2022-10-30T04:18:13;101769.84;;;12.67;98.37
69037;BME280;58547;51.690;5.186;2022-10-30T04:20:40;101768.22;;;12.65;99.13
69037;BME280;58547;51.690;5.186;2022-10-30T04:23:06;101769.00;;;12.67;98.29
69037;BME280;58547;51.690;5.186;2022-10-30T04:25:35;101760.44;;;12.63;100.00
69037;BME280;58547;51.690;5.186;2022-10-30T04:28:00;101756.25;;;12.59;100.00
69037;BME280;58547;51.690;5.186;2022-10-30T04:30:26;101761.16;;;12.67;98.90
69037;BME280;58547;51.690;5.186;2022-10-30T04:32:55;101766.81;;;12.58;98.73
69037;BME280;58547;51.690;5.186;2022-10-30T04:35:22;101767.75;;;12.57;100.00
69037;BME280;58547;51.690;5.186;2022-10-30T04:37:56;101762.34;;;12.60;100.00
69037;BME280;58547;51.690;5.186;2022-10-30T04:40:23;101762.97;;;12.65;100.00
69037;BME280;58547;51.690;5.186;2022-10-30T04:42:48;101760.06;;;12.71;100.00
69037;BME280;58547;51.690;5.186;2022-10-30T04:45:14;101764.13;;;12.76;99.46
69037;BME280;58547;51.690;5.186;2022-10-30T04:47:39;101757.59;;;12.68;100.00
69037;BME280;58547;51.690;5.186;2022-10-30T04:50:04;101767.81;;;12.72;100.00
69037;BME280;58547;51.690;5.186;2022-10-30T04:52:30;101766.84;;;12.75;99.59
69037;BME280;58547;51.690;5.186;2022-10-30T04:54:55;101763.81;;;12.65;100.00
69037;BME280;58547;51.690;5.186;2022-10-30T04:57:20;101770.84;;;12.65;99.29
69037;BME280;58547;51.690;5.186;2022-10-30T04:59:45;101777.44;;;12.54;100.00
69037;BME280;58547;51.690;5.186;2022-10-30T05:02:11;101774.81;;;12.54;100.00
69037;BME280;58547;51.690;5.186;2022-10-30T05:04:36;101786.91;;;12.57;100.00
69037;BME280;58547;51.690;5.186;2022-10-30T05:07:01;101788.38;;;12.63;100.00
69037;BME280;58547;51.690;5.186;2022-10-30T05:09:28;101786.84;;;12.59;100.00
69037;BME280;58547;51.690;5.186;2022-10-30T05:11:53;101791.78;;;12.65;100.00
69037;BME280;58547;51.690;5.186;2022-10-30T05:14:18;101781.31;;;12.65;100.00
69037;BME280;58547;51.690;5.186;2022-10-30T05:16:43;101776.97;;;12.64;100.00
69037;BME280;58547;51.690;5.186;2022-10-30T05:19:09;101786.44;;;12.66;100.00
69037;BME280;58547;51.690;5.186;2022-10-30T05:21:34;101781.84;;;12.71;100.00
69037;BME280;58547;51.690;5.186;2022-10-30T05:23:59;101777.47;;;12.72;100.00
69037;BME280;58547;51.690;5.186;2022-10-30T05:26:25;101773.06;;;12.72;100.00
69037;BME280;58547;51.690;5.186;2022-10-30T05:28:51;101776.06;;;12.65;99.51
69037;BME280;58547;51.690;5.186;2022-10-30T05:31:16;101771.91;;;12.61;98.84
69037;BME280;58547;51.690;5.186;2022-10-30T05:33:41;101771.00;;;12.43;99.39
69037;BME280;58547;51.690;5.186;2022-10-30T05:36:07;101775.13;;;12.29;100.00
69037;BME280;58547;51.690;5.186;2022-10-30T05:38:32;101772.22;;;12.17;100.00
69037;BME280;58547;51.690;5.186;2022-10-30T05:40:58;101771.59;;;12.11;100.00
69037;BME280;58547;51.690;5.186;2022-10-30T05:43:23;101767.91;;;12.15;99.25
69037;BME280;58547;51.690;5.186;2022-10-30T05:45:48;101768.63;;;12.00;100.00
69037;BME280;58547;51.690;5.186;2022-10-30T05:48:14;101770.84;;;11.89;100.00
69037;BME280;58547;51.690;5.186;2022-10-30T05:50:39;101765.88;;;11.83;100.00
69037;BME280;58547;51.690;5.186;2022-10-30T05:53:04;101774.56;;;11.83;100.00
69037;BME280;58547;51.690;5.186;2022-10-30T05:55:30;101767.00;;;11.77;100.00
69037;BME280;58547;51.690;5.186;2022-10-30T05:58:00;101767.72;;;11.81;100.00
69037;BME280;58547;51.690;5.186;2022-10-30T06:00:27;101764.31;;;11.79;100.00
69037;BME280;58547;51.690;5.186;2022-10-30T06:03:06;101743.56;;;11.75;100.00
69037;BME280;58547;51.690;5.186;2022-10-30T06:05:34;101745.31;;;11.75;100.00
69037;BME280;58547;51.690;5.186;2022-10-30T06:08:00;101741.16;;;11.71;100.00
69037;BME280;58547;51.690;5.186;2022-10-30T06:10:25;101753.94;;;11.77;100.00
69037;BME280;58547;51.690;5.186;2022-10-30T06:12:56;101738.72;;;11.66;100.00
69037;BME280;58547;51.690;5.186;2022-10-30T06:15:22;101752.78;;;11.64;100.00
69037;BME280;58547;51.690;5.186;2022-10-30T06:17:47;101758.22;;;11.59;100.00
69037;BME280;58547;51.690;5.186;2022-10-30T06:20:13;101757.28;;;11.60;100.00
69037;BME280;58547;51.690;5.186;2022-10-30T06:22:39;101766.88;;;11.60;100.00
69037;BME280;58547;51.690;5.186;2022-10-30T06:25:05;101761.59;;;11.61;100.00
69037;BME280;58547;51.690;5.186;2022-10-30T06:27:33;101764.16;;;11.63;100.00
69037;BME280;58547;51.690;5.186;2022-10-30T06:29:58;101765.13;;;11.60;100.00
69037;BME280;58547;51.690;5.186;2022-10-30T06:32:23;101772.06;;;11.61;100.00
69037;BME280;58547;51.690;5.186;2022-10-30T06:34:49;101772.91;;;11.62;100.00
69037;BME280;58547;51.690;5.186;2022-10-30T06:37:14;101760.78;;;11.61;100.00
69037;BME280;58547;51.690;5.186;2022-10-30T06:39:39;101763.44;;;11.59;100.00
69037;BME280;58547;51.690;5.186;2022-10-30T06:42:04;101752.25;;;11.55;100.00
69037;BME280;58547;51.690;5.186;2022-10-30T06:44:30;101751.41;;;11.55;100.00
69037;BME280;58547;51.690;5.186;2022-10-30T06:46:55;101759.91;;;11.60;100.00
69037;BME280;58547;51.690;5.186;2022-10-30T06:49:20;101757.78;;;11.68;100.00
69037;BME280;58547;51.690;5.186;2022-10-30T06:51:47;101757.41;;;11.78;100.00
69037;BME280;58547;51.690;5.186;2022-10-30T06:54:13;101758.69;;;11.88;100.00
69037;BME280;58547;51.690;5.186;2022-10-30T06:56:38;101762.75;;;11.95;100.00
69037;BME280;58547;51.690;5.186;2022-10-30T06:59:03;101765.28;;;11.97;100.00
69037;BME280;58547;51.690;5.186;2022-10-30T07:01:29;101760.69;;;12.02;100.00
69037;BME280;58547;51.690;5.186;2022-10-30T07:03:54;101762.19;;;12.07;100.00
69037;BME280;58547;51.690;5.186;2022-10-30T07:06:19;101750.03;;;12.06;100.00
69037;BME280;58547;51.690;5.186;2022-10-30T07:08:45;101762.84;;;12.12;100.00
69037;BME280;58547;51.690;5.186;2022-10-30T07:11:10;101771.31;;;12.18;100.00
69037;BME280;58547;51.690;5.186;2022-10-30T07:13:36;101774.69;;;12.20;100.00
69037;BME280;58547;51.690;5.186;2022-10-30T07:16:01;101775.25;;;12.26;100.00
69037;BME280;58547;51.690;5.186;2022-10-30T07:18:26;101775.03;;;12.31;100.00
69037;BME280;58547;51.690;5.186;2022-10-30T07:20:55;101772.28;;;12.34;100.00
69037;BME280;58547;51.690;5.186;2022-10-30T07:23:21;101763.66;;;12.32;100.00
69037;BME280;58547;51.690;5.186;2022-10-30T07:25:46;101764.28;;;12.37;100.00
69037;BME280;58547;51.690;5.186;2022-10-30T07:28:11;101750.34;;;12.37;100.00
69037;BME280;58547;51.690;5.186;2022-10-30T07:30:36;101753.53;;;12.43;100.00
69037;BME280;58547;51.690;5.186;2022-10-30T07:33:04;101745.00;;;12.40;100.00
69037;BME280;58547;51.690;5.186;2022-10-30T07:35:30;101755.31;;;12.43;100.00
69037;BME280;58547;51.690;5.186;2022-10-30T07:38:09;101756.06;;;12.45;100.00
69037;BME280;58547;51.690;5.186;2022-10-30T07:40:35;101753.22;;;12.49;100.00
69037;BME280;58547;51.690;5.186;2022-10-30T07:43:01;101759.00;;;12.56;100.00
69037;BME280;58547;51.690;5.186;2022-10-30T07:45:27;101757.28;;;12.57;100.00
69037;BME280;58547;51.690;5.186;2022-10-30T07:47:52;101771.25;;;12.55;100.00
69037;BME280;58547;51.690;5.186;2022-10-30T07:50:18;101770.50;;;12.53;100.00
69037;BME280;58547;51.690;5.186;2022-10-30T07:52:43;101774.66;;;12.58;100.00
69037;BME280;58547;51.690;5.186;2022-10-30T07:55:09;101762.88;;;12.66;100.00
69037;BME280;58547;51.690;5.186;2022-10-30T07:57:35;101760.91;;;12.71;100.00
69037;BME280;58547;51.690;5.186;2022-10-30T08:00:03;101760.69;;;12.76;100.00
69037;BME280;58547;51.690;5.186;2022-10-30T08:02:29;101763.06;;;12.81;100.00
69037;BME280;58547;51.690;5.186;2022-10-30T08:04:54;101760.91;;;12.89;100.00
69037;BME280;58547;51.690;5.186;2022-10-30T08:07:19;101751.69;;;12.99;100.00
69037;BME280;58547;51.690;5.186;2022-10-30T08:09:45;101753.53;;;12.97;100.00
69037;BME280;58547;51.690;5.186;2022-10-30T08:12:11;101753.22;;;13.03;100.00
69037;BME280;58547;51.690;5.186;2022-10-30T08:14:36;101764.41;;;13.07;100.00
69037;BME280;58547;51.690;5.186;2022-10-30T08:17:01;101765.09;;;13.10;100.00
69037;BME280;58547;51.690;5.186;2022-10-30T08:19:27;101767.63;;;13.12;100.00
69037;BME280;58547;51.690;5.186;2022-10-30T08:21:52;101761.31;;;13.16;100.00
69037;BME280;58547;51.690;5.186;2022-10-30T08:24:17;101768.09;;;13.20;100.00
69037;BME280;58547;51.690;5.186;2022-10-30T08:26:42;101769.63;;;13.24;100.00
69037;BME280;58547;51.690;5.186;2022-10-30T08:29:08;101772.03;;;13.29;100.00
69037;BME280;58547;51.690;5.186;2022-10-30T08:31:33;101772.75;;;13.32;100.00
69037;BME280;58547;51.690;5.186;2022-10-30T08:33:58;101768.19;;;13.36;100.00
69037;BME280;58547;51.690;5.186;2022-10-30T08:36:24;101769.66;;;13.42;100.00
69037;BME280;58547;51.690;5.186;2022-10-30T08:38:49;101764.00;;;13.49;100.00
69037;BME280;58547;51.690;5.186;2022-10-30T08:41:14;101776.88;;;13.54;100.00
69037;BME280;58547;51.690;5.186;2022-10-30T08:43:39;101782.09;;;13.54;100.00
69037;BME280;58547;51.690;5.186;2022-10-30T08:46:05;101773.25;;;13.56;100.00
69037;BME280;58547;51.690;5.186;2022-10-30T08:48:30;101781.78;;;13.60;100.00
69037;BME280;58547;51.690;5.186;2022-10-30T08:50:58;101765.91;;;13.63;100.00
69037;BME280;58547;51.690;5.186;2022-10-30T08:53:25;101769.81;;;13.72;100.00
69037;BME280;58547;51.690;5.186;2022-10-30T08:55:50;101761.88;;;13.73;100.00
69037;BME280;58547;51.690;5.186;2022-10-30T08:58:15;101765.88;;;13.81;100.00
69037;BME280;58547;51.690;5.186;2022-10-30T09:00:41;101758.50;;;13.87;100.00
69037;BME280;58547;51.690;5.186;2022-10-30T09:03:06;101753.88;;;13.92;100.00
69037;BME280;58547;51.690;5.186;2022-10-30T09:05:31;101747.13;;;14.04;100.00
69037;BME280;58547;51.690;5.186;2022-10-30T09:07:57;101747.72;;;14.09;100.00
69037;BME280;58547;51.690;5.186;2022-10-30T09:10:25;101740.41;;;14.14;100.00
69037;BME280;58547;51.690;5.186;2022-10-30T09:12:56;101739.25;;;14.20;100.00
69037;BME280;58547;51.690;5.186;2022-10-30T09:15:22;101738.91;;;14.26;100.00
69037;BME280;58547;51.690;5.186;2022-10-30T09:17:53;101741.28;;;14.31;100.00
69037;BME280;58547;51.690;5.186;2022-10-30T09:20:18;101748.66;;;14.40;100.00
69037;BME280;58547;51.690;5.186;2022-10-30T09:22:43;101754.41;;;14.47;100.00
69037;BME280;58547;51.690;5.186;2022-10-30T09:25:09;101750.91;;;14.62;100.00
69037;BME280;58547;51.690;5.186;2022-10-30T09:27:37;101754.81;;;14.71;100.00
69037;BME280;58547;51.690;5.186;2022-10-30T09:30:03;101741.16;;;14.80;100.00
69037;BME280;58547;51.690;5.186;2022-10-30T09:32:29;101752.63;;;14.93;100.00
69037;BME280;58547;51.690;5.186;2022-10-30T09:34:54;101752.28;;;15.00;100.00
69037;BME280;58547;51.690;5.186;2022-10-30T09:37:19;101752.78;;;15.06;99.84
69037;BME280;58547;51.690;5.186;2022-10-30T09:39:45;101762.16;;;15.10;100.00
69037;BME280;58547;51.690;5.186;2022-10-30T09:50:20;101775.66;;;15.63;99.50
69037;BME280;58547;51.690;5.186;2022-10-30T09:53:11;101780.97;;;15.77;98.03
69037;BME280;58547;51.690;5.186;2022-10-30T09:58:34;101777.53;;;16.18;97.91
69037;BME280;58547;51.690;5.186;2022-10-30T10:01:20;101784.56;;;16.32;97.63
69037;BME280;58547;51.690;5.186;2022-10-30T10:06:20;101780.41;;;16.43;94.47
69037;BME280;58547;51.690;5.186;2022-10-30T10:08:50;101769.66;;;16.46;93.92
69037;BME280;58547;51.690;5.186;2022-10-30T10:11:21;101770.31;;;16.49;96.15
69037;BME280;58547;51.690;5.186;2022-10-30T10:13:51;101762.97;;;16.54;95.69
69037;BME280;58547;51.690;5.186;2022-10-30T10:16:19;101769.59;;;16.60;91.91
69037;BME280;58547;51.690;5.186;2022-10-30T10:21:21;101758.66;;;16.66;93.83
69037;BME280;58547;51.690;5.186;2022-10-30T10:23:48;101768.50;;;16.77;96.19
69037;BME280;58547;51.690;5.186;2022-10-30T10:39:48;101762.59;;;16.73;88.40
69037;BME280;58547;51.690;5.186;2022-10-30T10:47:55;101767.19;;;16.84;90.34
69037;BME280;58547;51.690;5.186;2022-10-30T10:50:33;101767.84;;;16.88;88.12
69037;BME280;58547;51.690;5.186;2022-10-30T10:53:04;101750.88;;;16.92;87.17
69037;BME280;58547;51.690;5.186;2022-10-30T10:55:33;101754.88;;;16.97;86.29
69037;BME280;58547;51.690;5.186;2022-10-30T10:58:06;101752.56;;;17.06;89.09
69037;BME280;58547;51.690;5.186;2022-10-30T11:00:32;101753.13;;;17.11;86.76
69037;BME280;58547;51.690;5.186;2022-10-30T11:03:04;101745.63;;;17.17;87.13
69037;BME280;58547;51.690;5.186;2022-10-30T11:05:40;101735.75;;;17.21;88.39
69037;BME280;58547;51.690;5.186;2022-10-30T11:08:27;101735.41;;;17.26;86.97
69037;BME280;58547;51.690;5.186;2022-10-30T11:10:56;101736.91;;;17.30;86.51
69037;BME280;58547;51.690;5.186;2022-10-30T11:13:25;101733.00;;;17.35;87.54
69037;BME280;58547;51.690;5.186;2022-10-30T11:15:59;101740.34;;;17.43;88.18
69037;BME280;58547;51.690;5.186;2022-10-30T11:18:28;101734.66;;;17.49;86.07
69037;BME280;58547;51.690;5.186;2022-10-30T11:20:58;101733.50;;;17.53;85.13
69037;BME280;58547;51.690;5.186;2022-10-30T11:23:42;101727.59;;;17.50;86.45
69037;BME280;58547;51.690;5.186;2022-10-30T11:26:29;101727.28;;;17.54;87.51
69037;BME280;58547;51.690;5.186;2022-10-30T11:33:54;101718.91;;;17.73;82.53
69037;BME280;58547;51.690;5.186;2022-10-30T11:36:24;101716.59;;;17.82;85.89
69037;BME280;58547;51.690;5.186;2022-10-30T11:38:50;101721.31;;;17.89;85.10
69037;BME280;58547;51.690;5.186;2022-10-30T11:41:16;101727.13;;;17.94;86.95
69037;BME280;58547;51.690;5.186;2022-10-30T11:43:42;101726.81;;;17.99;86.48
69037;BME280;58547;51.690;5.186;2022-10-30T11:46:14;101717.94;;;18.00;82.45
69037;BME280;58547;51.690;5.186;2022-10-30T11:48:44;101713.25;;;18.04;85.24
69037;BME280;58547;51.690;5.186;2022-10-30T11:51:11;101708.50;;;18.09;86.64
69037;BME280;58547;51.690;5.186;2022-10-30T11:53:41;101712.72;;;18.11;86.85
69037;BME280;58547;51.690;5.186;2022-10-30T11:56:18;101715.13;;;18.14;84.94
69037;BME280;58547;51.690;5.186;2022-10-30T11:58:47;101722.09;;;18.15;84.21
69037;BME280;58547;51.690;5.186;2022-10-30T12:01:31;101717.44;;;18.19;86.39
69037;BME280;58547;51.690;5.186;2022-10-30T12:04:21;101719.97;;;18.20;83.86
69037;BME280;58547;51.690;5.186;2022-10-30T12:06:53;101723.78;;;18.16;84.44
69037;BME280;58547;51.690;5.186;2022-10-30T12:09:21;101722.84;;;18.17;83.12
69037;BME280;58547;51.690;5.186;2022-10-30T12:11:47;101718.50;;;18.16;83.32
69037;BME280;58547;51.690;5.186;2022-10-30T12:14:23;101711.31;;;18.18;84.62
69037;BME280;58547;51.690;5.186;2022-10-30T12:16:54;101706.75;;;18.20;85.25
69037;BME280;58547;51.690;5.186;2022-10-30T12:19:21;101706.66;;;18.22;85.35
69037;BME280;58547;51.690;5.186;2022-10-30T12:21:50;101706.66;;;18.22;84.42
69037;BME280;58547;51.690;5.186;2022-10-30T12:24:22;101718.06;;;18.23;85.09
69037;BME280;58547;51.690;5.186;2022-10-30T12:26:54;101709.28;;;18.22;84.86
69037;BME280;58547;51.690;5.186;2022-10-30T12:29:23;101700.88;;;18.17;86.23
69037;BME280;58547;51.690;5.186;2022-10-30T12:32:04;101717.94;;;18.24;85.39
69037;BME280;58547;51.690;5.186;2022-10-30T12:37:23;101706.84;;;18.32;86.43
69037;BME280;58547;51.690;5.186;2022-10-30T12:40:00;101709.22;;;18.35;85.47
69037;BME280;58547;51.690;5.186;2022-10-30T12:42:30;101709.63;;;18.41;84.04
69037;BME280;58547;51.690;5.186;2022-10-30T12:45:08;101700.66;;;18.44;83.90
69037;BME280;58547;51.690;5.186;2022-10-30T12:47:56;101695.34;;;18.44;85.06
69037;BME280;58547;51.690;5.186;2022-10-30T12:50:41;101691.53;;;18.48;84.42
69037;BME280;58547;51.690;5.186;2022-10-30T12:53:21;101688.53;;;18.53;83.79
69037;BME280;58547;51.690;5.186;2022-10-30T12:55:57;101676.91;;;18.55;82.30
69037;BME280;58547;51.690;5.186;2022-10-30T12:58:39;101675.09;;;18.56;83.98
69037;BME280;58547;51.690;5.186;2022-10-30T13:04:16;101680.19;;;18.70;82.95
69037;BME280;58547;51.690;5.186;2022-10-30T13:06:51;101668.88;;;18.68;81.96
69037;BME280;58547;51.690;5.186;2022-10-30T13:09:26;101682.97;;;18.69;82.35
69037;BME280;58547;51.690;5.186;2022-10-30T13:12:08;101690.16;;;18.67;83.19
69037;BME280;58547;51.690;5.186;2022-10-30T13:17:11;101695.03;;;18.60;82.48
69037;BME280;58547;51.690;5.186;2022-10-30T13:19:39;101690.00;;;18.57;82.28
69037;BME280;58547;51.690;5.186;2022-10-30T13:22:25;101682.19;;;18.55;82.81
69037;BME280;58547;51.690;5.186;2022-10-30T13:30:16;101684.19;;;18.52;82.95
69037;BME280;58547;51.690;5.186;2022-10-30T13:33:04;101695.84;;;18.49;82.43
69037;BME280;58547;51.690;5.186;2022-10-30T13:41:17;101694.91;;;18.50;84.08
69037;BME280;58547;51.690;5.186;2022-10-30T13:44:17;101689.63;;;18.50;84.36
69037;BME280;58547;51.690;5.186;2022-10-30T13:47:00;101688.75;;;18.50;84.35
69037;BME280;58547;51.690;5.186;2022-10-30T13:49:48;101691.28;;;18.51;84.24
69037;BME280;58547;51.690;5.186;2022-10-30T13:52:18;101693.09;;;18.51;84.62
69037;BME280;58547;51.690;5.186;2022-10-30T13:55:02;101692.03;;;18.53;84.99
69037;BME280;58547;51.690;5.186;2022-10-30T14:03:58;101681.25;;;18.68;83.84
69037;BME280;58547;51.690;5.186;2022-10-30T14:15:04;101692.75;;;18.79;80.67
69037;BME280;58547;51.690;5.186;2022-10-30T14:17:30;101688.47;;;18.77;82.30
69037;BME280;58547;51.690;5.186;2022-10-30T14:22:30;101675.25;;;18.77;81.69
69037;BME280;58547;51.690;5.186;2022-10-30T14:24:57;101677.72;;;18.80;81.22
69037;BME280;58547;51.690;5.186;2022-10-30T14:27:30;101679.41;;;18.81;83.30